Terminal Aerodrome Forecast
Issued by NWS

Home | Current Version | Previous Version | Graphics & Text | Print | Product List | Glossary On
Versions: 1 2 3 4 5 6 7 8 9 10 11 12 13 14 15 16 17 18
000
FTUS42 KMHX 210500 RRA
TAFPGV
TAF
KPGV 210543Z 2106/2206 VRB03KT P6SM BKN080
     FM210800 00000KT 4SM BR SCT010 BKN100
     FM211200 09004KT P6SM SCT020 BKN100
     FM211600 11006KT P6SM VCTS SCT030CB BKN100
     FM220000 10003KT P6SM SCT025 BKN040
      AMD LTD TO CLD VIS AND WIND=

USA.gov is the U.S. government's official web portal to all federal, state and local government web resources and services.